sensor_id;sensor_type;location;lat;lon;timestamp;temperature;humidity
26408;DHT22;14583;43.604;1.364;2024-02-14T00:00:34;8.80;99.90
26408;DHT22;14583;43.604;1.364;2024-02-14T00:03:00;8.90;99.90
26408;DHT22;14583;43.604;1.364;2024-02-14T00:05:26;8.90;99.90
26408;DHT22;14583;43.604;1.364;2024-02-14T00:07:51;9.00;99.90
26408;DHT22;14583;43.604;1.364;2024-02-14T00:10:17;9.10;99.90
26408;DHT22;14583;43.604;1.364;2024-02-14T00:12:43;9.10;99.90
26408;DHT22;14583;43.604;1.364;2024-02-14T00:15:10;8.90;99.90
26408;DHT22;14583;43.604;1.364;2024-02-14T00:17:36;8.90;99.90
26408;DHT22;14583;43.604;1.364;2024-02-14T00:20:02;8.90;99.90
26408;DHT22;14583;43.604;1.364;2024-02-14T00:22:29;9.00;99.90
26408;DHT22;14583;43.604;1.364;2024-02-14T00:24:54;9.00;99.90
26408;DHT22;14583;43.604;1.364;2024-02-14T00:27:21;8.90;99.90
26408;DHT22;14583;43.604;1.364;2024-02-14T00:29:47;8.80;99.90
26408;DHT22;14583;43.604;1.364;2024-02-14T00:32:14;8.80;99.90
26408;DHT22;14583;43.604;1.364;2024-02-14T00:34:40;8.70;99.90
26408;DHT22;14583;43.604;1.364;2024-02-14T00:37:05;8.60;99.90
26408;DHT22;14583;43.604;1.364;2024-02-14T00:39:31;8.70;99.90
26408;DHT22;14583;43.604;1.364;2024-02-14T00:41:57;8.70;99.90
26408;DHT22;14583;43.604;1.364;2024-02-14T00:44:22;8.70;99.90
26408;DHT22;14583;43.604;1.364;2024-02-14T00:46:48;8.70;99.90
26408;DHT22;14583;43.604;1.364;2024-02-14T00:49:14;8.70;99.90
26408;DHT22;14583;43.604;1.364;2024-02-14T00:51:40;8.60;99.90
26408;DHT22;14583;43.604;1.364;2024-02-14T00:54:06;8.50;99.90
26408;DHT22;14583;43.604;1.364;2024-02-14T00:56:33;8.40;99.90
26408;DHT22;14583;43.604;1.364;2024-02-14T00:58:59;8.40;99.90
26408;DHT22;14583;43.604;1.364;2024-02-14T01:01:25;8.30;99.90
26408;DHT22;14583;43.604;1.364;2024-02-14T01:03:51;8.30;99.90
26408;DHT22;14583;43.604;1.364;2024-02-14T01:06:17;8.30;99.90
26408;DHT22;14583;43.604;1.364;2024-02-14T01:08:44;8.20;99.90
26408;DHT22;14583;43.604;1.364;2024-02-14T01:11:10;8.20;99.90
26408;DHT22;14583;43.604;1.364;2024-02-14T01:13:36;8.20;99.90
26408;DHT22;14583;43.604;1.364;2024-02-14T01:16:03;8.20;99.90
26408;DHT22;14583;43.604;1.364;2024-02-14T01:18:31;8.30;99.90
26408;DHT22;14583;43.604;1.364;2024-02-14T01:21:03;8.40;99.90
26408;DHT22;14583;43.604;1.364;2024-02-14T01:23:29;8.50;99.90
26408;DHT22;14583;43.604;1.364;2024-02-14T01:25:55;8.40;99.90
26408;DHT22;14583;43.604;1.364;2024-02-14T01:28:21;8.30;99.90
26408;DHT22;14583;43.604;1.364;2024-02-14T01:30:47;8.20;99.90
26408;DHT22;14583;43.604;1.364;2024-02-14T01:33:12;8.10;99.90
26408;DHT22;14583;43.604;1.364;2024-02-14T01:35:38;8.10;99.90
26408;DHT22;14583;43.604;1.364;2024-02-14T01:38:04;8.10;99.90
26408;DHT22;14583;43.604;1.364;2024-02-14T01:40:31;8.20;99.90
26408;DHT22;14583;43.604;1.364;2024-02-14T01:42:57;8.30;99.90
26408;DHT22;14583;43.604;1.364;2024-02-14T01:45:23;8.40;99.90
26408;DHT22;14583;43.604;1.364;2024-02-14T01:47:49;8.40;99.90
26408;DHT22;14583;43.604;1.364;2024-02-14T01:51:02;8.40;99.90
26408;DHT22;14583;43.604;1.364;2024-02-14T01:53:16;8.30;99.90
26408;DHT22;14583;43.604;1.364;2024-02-14T01:55:42;8.20;99.90
26408;DHT22;14583;43.604;1.364;2024-02-14T01:58:08;8.10;99.90
26408;DHT22;14583;43.604;1.364;2024-02-14T02:00:34;8.00;99.90
26408;DHT22;14583;43.604;1.364;2024-02-14T02:03:04;8.00;99.90
26408;DHT22;14583;43.604;1.364;2024-02-14T02:05:30;8.00;99.90
26408;DHT22;14583;43.604;1.364;2024-02-14T02:07:56;8.00;99.90
26408;DHT22;14583;43.604;1.364;2024-02-14T02:10:21;8.10;99.90
26408;DHT22;14583;43.604;1.364;2024-02-14T02:12:48;8.10;99.90
26408;DHT22;14583;43.604;1.364;2024-02-14T02:15:16;8.10;99.90
26408;DHT22;14583;43.604;1.364;2024-02-14T02:17:45;8.10;99.90
26408;DHT22;14583;43.604;1.364;2024-02-14T02:20:18;8.10;99.90
26408;DHT22;14583;43.604;1.364;2024-02-14T02:22:49;8.00;99.90
26408;DHT22;14583;43.604;1.364;2024-02-14T02:25:15;8.10;99.90
26408;DHT22;14583;43.604;1.364;2024-02-14T02:27:40;8.20;99.90
26408;DHT22;14583;43.604;1.364;2024-02-14T02:30:07;8.20;99.90
26408;DHT22;14583;43.604;1.364;2024-02-14T02:32:34;8.20;99.90
26408;DHT22;14583;43.604;1.364;2024-02-14T02:34:59;8.10;99.90
26408;DHT22;14583;43.604;1.364;2024-02-14T02:37:26;8.10;99.90
26408;DHT22;14583;43.604;1.364;2024-02-14T02:39:57;8.00;99.90
26408;DHT22;14583;43.604;1.364;2024-02-14T02:42:23;7.80;99.90
26408;DHT22;14583;43.604;1.364;2024-02-14T02:44:50;7.70;99.90
26408;DHT22;14583;43.604;1.364;2024-02-14T02:47:16;7.70;99.90
26408;DHT22;14583;43.604;1.364;2024-02-14T02:49:45;7.80;99.90
26408;DHT22;14583;43.604;1.364;2024-02-14T02:52:11;7.80;99.90
26408;DHT22;14583;43.604;1.364;2024-02-14T02:54:37;7.80;99.90
26408;DHT22;14583;43.604;1.364;2024-02-14T02:57:10;7.80;99.90
26408;DHT22;14583;43.604;1.364;2024-02-14T02:59:36;7.80;99.90
26408;DHT22;14583;43.604;1.364;2024-02-14T03:02:02;7.80;99.90
26408;DHT22;14583;43.604;1.364;2024-02-14T03:04:29;7.70;99.90
26408;DHT22;14583;43.604;1.364;2024-02-14T03:06:57;7.60;99.90
26408;DHT22;14583;43.604;1.364;2024-02-14T03:09:23;7.50;99.90
26408;DHT22;14583;43.604;1.364;2024-02-14T03:11:51;7.50;99.90
26408;DHT22;14583;43.604;1.364;2024-02-14T03:14:17;7.40;99.90
26408;DHT22;14583;43.604;1.364;2024-02-14T03:16:43;7.50;99.90
26408;DHT22;14583;43.604;1.364;2024-02-14T03:19:09;7.40;99.90
26408;DHT22;14583;43.604;1.364;2024-02-14T03:21:35;7.40;99.90
26408;DHT22;14583;43.604;1.364;2024-02-14T03:24:04;7.30;99.90
26408;DHT22;14583;43.604;1.364;2024-02-14T03:26:31;7.30;99.90
26408;DHT22;14583;43.604;1.364;2024-02-14T03:29:00;7.30;99.90
26408;DHT22;14583;43.604;1.364;2024-02-14T03:31:26;7.30;99.90
26408;DHT22;14583;43.604;1.364;2024-02-14T03:33:52;7.20;99.90
26408;DHT22;14583;43.604;1.364;2024-02-14T03:36:19;7.20;99.90
26408;DHT22;14583;43.604;1.364;2024-02-14T03:38:45;7.20;99.90
26408;DHT22;14583;43.604;1.364;2024-02-14T03:41:12;7.20;99.90
26408;DHT22;14583;43.604;1.364;2024-02-14T03:43:38;7.20;99.90
26408;DHT22;14583;43.604;1.364;2024-02-14T03:46:04;7.10;99.90
26408;DHT22;14583;43.604;1.364;2024-02-14T03:48:31;7.10;99.90
26408;DHT22;14583;43.604;1.364;2024-02-14T03:50:57;7.10;99.90
26408;DHT22;14583;43.604;1.364;2024-02-14T03:53:23;7.20;99.90
26408;DHT22;14583;43.604;1.364;2024-02-14T03:55:49;7.20;99.90
26408;DHT22;14583;43.604;1.364;2024-02-14T03:58:15;7.10;99.90
26408;DHT22;14583;43.604;1.364;2024-02-14T04:00:50;7.20;99.90
26408;DHT22;14583;43.604;1.364;2024-02-14T04:03:17;7.20;99.90
26408;DHT22;14583;43.604;1.364;2024-02-14T04:05:43;7.20;99.90
26408;DHT22;14583;43.604;1.364;2024-02-14T04:08:10;7.10;99.90
26408;DHT22;14583;43.604;1.364;2024-02-14T04:10:36;7.00;99.90
26408;DHT22;14583;43.604;1.364;2024-02-14T04:13:05;7.10;99.90
26408;DHT22;14583;43.604;1.364;2024-02-14T04:15:31;7.20;99.90
26408;DHT22;14583;43.604;1.364;2024-02-14T04:17:57;7.30;99.90
26408;DHT22;14583;43.604;1.364;2024-02-14T04:20:25;7.30;99.90
26408;DHT22;14583;43.604;1.364;2024-02-14T04:22:51;7.40;99.90
26408;DHT22;14583;43.604;1.364;2024-02-14T04:25:16;7.30;99.90
26408;DHT22;14583;43.604;1.364;2024-02-14T04:27:44;7.20;99.90
26408;DHT22;14583;43.604;1.364;2024-02-14T04:30:10;7.10;99.90
26408;DHT22;14583;43.604;1.364;2024-02-14T04:32:35;7.00;99.90
26408;DHT22;14583;43.604;1.364;2024-02-14T04:35:01;7.00;99.90
26408;DHT22;14583;43.604;1.364;2024-02-14T04:37:27;7.00;99.90
26408;DHT22;14583;43.604;1.364;2024-02-14T04:39:52;6.90;99.90
26408;DHT22;14583;43.604;1.364;2024-02-14T04:42:18;6.90;99.90
26408;DHT22;14583;43.604;1.364;2024-02-14T04:44:44;6.80;99.90
26408;DHT22;14583;43.604;1.364;2024-02-14T04:47:09;6.80;99.90
26408;DHT22;14583;43.604;1.364;2024-02-14T04:49:36;6.80;99.90
26408;DHT22;14583;43.604;1.364;2024-02-14T04:52:02;6.80;99.90
26408;DHT22;14583;43.604;1.364;2024-02-14T04:54:28;6.80;99.90
26408;DHT22;14583;43.604;1.364;2024-02-14T04:56:54;6.70;99.90
26408;DHT22;14583;43.604;1.364;2024-02-14T04:59:19;6.70;99.90
26408;DHT22;14583;43.604;1.364;2024-02-14T05:01:45;6.70;99.90
26408;DHT22;14583;43.604;1.364;2024-02-14T05:04:12;6.80;99.90
26408;DHT22;14583;43.604;1.364;2024-02-14T05:06:38;6.90;99.90
26408;DHT22;14583;43.604;1.364;2024-02-14T05:09:05;7.00;99.90
26408;DHT22;14583;43.604;1.364;2024-02-14T05:11:30;7.00;99.90
26408;DHT22;14583;43.604;1.364;2024-02-14T05:13:56;7.10;99.90
26408;DHT22;14583;43.604;1.364;2024-02-14T05:16:22;7.00;99.90
26408;DHT22;14583;43.604;1.364;2024-02-14T05:18:48;7.00;99.90
26408;DHT22;14583;43.604;1.364;2024-02-14T05:21:14;7.10;99.90
26408;DHT22;14583;43.604;1.364;2024-02-14T05:23:40;6.90;99.90
26408;DHT22;14583;43.604;1.364;2024-02-14T05:26:06;6.90;99.90
26408;DHT22;14583;43.604;1.364;2024-02-14T05:28:32;7.00;99.90
26408;DHT22;14583;43.604;1.364;2024-02-14T05:30:59;6.90;99.90
26408;DHT22;14583;43.604;1.364;2024-02-14T05:33:26;6.90;99.90
26408;DHT22;14583;43.604;1.364;2024-02-14T05:35:52;6.90;99.90
26408;DHT22;14583;43.604;1.364;2024-02-14T05:38:18;6.90;99.90
26408;DHT22;14583;43.604;1.364;2024-02-14T05:40:48;7.00;99.90
26408;DHT22;14583;43.604;1.364;2024-02-14T05:43:14;6.90;99.90
26408;DHT22;14583;43.604;1.364;2024-02-14T05:45:40;6.70;99.90
26408;DHT22;14583;43.604;1.364;2024-02-14T05:48:07;6.60;99.90
26408;DHT22;14583;43.604;1.364;2024-02-14T05:50:33;6.60;99.90
26408;DHT22;14583;43.604;1.364;2024-02-14T05:53:00;6.60;99.90
26408;DHT22;14583;43.604;1.364;2024-02-14T05:55:26;6.50;99.90
26408;DHT22;14583;43.604;1.364;2024-02-14T05:57:52;6.40;99.90
26408;DHT22;14583;43.604;1.364;2024-02-14T06:00:18;6.40;99.90
26408;DHT22;14583;43.604;1.364;2024-02-14T06:02:48;6.40;99.90
26408;DHT22;14583;43.604;1.364;2024-02-14T06:05:15;6.40;99.90
26408;DHT22;14583;43.604;1.364;2024-02-14T06:07:41;6.40;99.90
26408;DHT22;14583;43.604;1.364;2024-02-14T06:10:08;6.40;99.90
26408;DHT22;14583;43.604;1.364;2024-02-14T06:12:34;6.30;99.90
26408;DHT22;14583;43.604;1.364;2024-02-14T06:15:03;6.30;99.90
26408;DHT22;14583;43.604;1.364;2024-02-14T06:17:29;6.30;99.90
26408;DHT22;14583;43.604;1.364;2024-02-14T06:19:55;6.30;99.90
26408;DHT22;14583;43.604;1.364;2024-02-14T06:22:22;6.30;99.90
26408;DHT22;14583;43.604;1.364;2024-02-14T06:24:48;6.30;99.90
26408;DHT22;14583;43.604;1.364;2024-02-14T06:27:16;6.30;99.90
26408;DHT22;14583;43.604;1.364;2024-02-14T06:29:43;6.30;99.90
26408;DHT22;14583;43.604;1.364;2024-02-14T06:32:08;6.30;99.90
26408;DHT22;14583;43.604;1.364;2024-02-14T06:34:34;6.30;99.90
26408;DHT22;14583;43.604;1.364;2024-02-14T06:37:00;6.30;99.90
26408;DHT22;14583;43.604;1.364;2024-02-14T06:39:25;6.20;99.90
26408;DHT22;14583;43.604;1.364;2024-02-14T06:41:51;6.20;99.90
26408;DHT22;14583;43.604;1.364;2024-02-14T06:44:17;6.20;99.90
26408;DHT22;14583;43.604;1.364;2024-02-14T06:46:44;6.20;99.90
26408;DHT22;14583;43.604;1.364;2024-02-14T06:49:09;6.20;99.90
26408;DHT22;14583;43.604;1.364;2024-02-14T06:51:35;6.10;99.90
26408;DHT22;14583;43.604;1.364;2024-02-14T06:54:01;6.10;99.90
26408;DHT22;14583;43.604;1.364;2024-02-14T06:56:29;6.10;99.90
26408;DHT22;14583;43.604;1.364;2024-02-14T06:58:56;6.10;99.90
26408;DHT22;14583;43.604;1.364;2024-02-14T07:01:27;6.10;99.90
26408;DHT22;14583;43.604;1.364;2024-02-14T07:03:53;6.10;99.90
26408;DHT22;14583;43.604;1.364;2024-02-14T07:06:19;6.20;99.90
26408;DHT22;14583;43.604;1.364;2024-02-14T07:08:46;6.20;99.90
26408;DHT22;14583;43.604;1.364;2024-02-14T07:11:13;6.20;99.90
26408;DHT22;14583;43.604;1.364;2024-02-14T07:13:39;6.20;99.90
26408;DHT22;14583;43.604;1.364;2024-02-14T07:16:24;6.30;99.90
26408;DHT22;14583;43.604;1.364;2024-02-14T07:18:50;6.30;99.90
26408;DHT22;14583;43.604;1.364;2024-02-14T07:21:15;6.30;99.90
26408;DHT22;14583;43.604;1.364;2024-02-14T07:23:42;6.30;99.90
26408;DHT22;14583;43.604;1.364;2024-02-14T07:26:07;6.40;99.90
26408;DHT22;14583;43.604;1.364;2024-02-14T07:28:33;6.40;99.90
26408;DHT22;14583;43.604;1.364;2024-02-14T07:30:59;6.50;99.90
26408;DHT22;14583;43.604;1.364;2024-02-14T07:33:25;6.50;99.90
26408;DHT22;14583;43.604;1.364;2024-02-14T07:35:50;6.60;99.90
26408;DHT22;14583;43.604;1.364;2024-02-14T07:38:16;6.60;99.90
26408;DHT22;14583;43.604;1.364;2024-02-14T07:40:43;6.60;99.90
26408;DHT22;14583;43.604;1.364;2024-02-14T07:43:08;6.60;99.90
26408;DHT22;14583;43.604;1.364;2024-02-14T07:45:34;6.80;99.90
26408;DHT22;14583;43.604;1.364;2024-02-14T07:48:00;6.80;99.90
26408;DHT22;14583;43.604;1.364;2024-02-14T07:50:25;6.80;99.90
26408;DHT22;14583;43.604;1.364;2024-02-14T07:52:53;6.90;99.90
26408;DHT22;14583;43.604;1.364;2024-02-14T07:55:19;7.00;99.90
26408;DHT22;14583;43.604;1.364;2024-02-14T07:57:44;7.10;99.90
26408;DHT22;14583;43.604;1.364;2024-02-14T08:00:11;7.10;99.90
26408;DHT22;14583;43.604;1.364;2024-02-14T08:02:37;7.30;99.90
26408;DHT22;14583;43.604;1.364;2024-02-14T08:05:03;7.30;99.90
26408;DHT22;14583;43.604;1.364;2024-02-14T08:07:31;7.50;99.90
26408;DHT22;14583;43.604;1.364;2024-02-14T08:09:57;7.50;99.90
26408;DHT22;14583;43.604;1.364;2024-02-14T08:12:23;7.60;99.90
26408;DHT22;14583;43.604;1.364;2024-02-14T08:14:50;7.60;99.90
26408;DHT22;14583;43.604;1.364;2024-02-14T08:17:16;7.70;99.90
26408;DHT22;14583;43.604;1.364;2024-02-14T08:19:41;7.80;99.90
26408;DHT22;14583;43.604;1.364;2024-02-14T08:22:07;7.90;99.90
26408;DHT22;14583;43.604;1.364;2024-02-14T08:24:33;7.90;99.90
26408;DHT22;14583;43.604;1.364;2024-02-14T08:26:59;8.00;99.90
26408;DHT22;14583;43.604;1.364;2024-02-14T08:29:24;8.10;99.90
26408;DHT22;14583;43.604;1.364;2024-02-14T08:31:50;8.20;99.90
26408;DHT22;14583;43.604;1.364;2024-02-14T08:34:16;8.20;99.90
26408;DHT22;14583;43.604;1.364;2024-02-14T08:36:42;8.30;99.90
26408;DHT22;14583;43.604;1.364;2024-02-14T08:39:09;8.30;99.90
26408;DHT22;14583;43.604;1.364;2024-02-14T08:41:38;8.30;99.90
26408;DHT22;14583;43.604;1.364;2024-02-14T08:44:04;8.30;99.90
26408;DHT22;14583;43.604;1.364;2024-02-14T08:46:31;8.40;99.90
26408;DHT22;14583;43.604;1.364;2024-02-14T08:48:56;8.50;99.90
26408;DHT22;14583;43.604;1.364;2024-02-14T08:51:22;8.60;99.90
26408;DHT22;14583;43.604;1.364;2024-02-14T08:53:49;8.60;99.90
26408;DHT22;14583;43.604;1.364;2024-02-14T08:56:20;8.50;99.90
26408;DHT22;14583;43.604;1.364;2024-02-14T08:58:46;8.50;99.90
26408;DHT22;14583;43.604;1.364;2024-02-14T09:01:12;8.60;99.90
26408;DHT22;14583;43.604;1.364;2024-02-14T09:03:38;8.70;99.90
26408;DHT22;14583;43.604;1.364;2024-02-14T09:06:04;8.60;99.90
26408;DHT22;14583;43.604;1.364;2024-02-14T09:08:30;8.60;99.90
26408;DHT22;14583;43.604;1.364;2024-02-14T09:10:57;8.80;99.90
26408;DHT22;14583;43.604;1.364;2024-02-14T09:13:24;8.90;99.90
26408;DHT22;14583;43.604;1.364;2024-02-14T09:15:50;9.00;99.90
26408;DHT22;14583;43.604;1.364;2024-02-14T09:18:18;9.00;99.90
26408;DHT22;14583;43.604;1.364;2024-02-14T09:20:45;9.10;99.90
26408;DHT22;14583;43.604;1.364;2024-02-14T09:23:12;9.30;99.90
26408;DHT22;14583;43.604;1.364;2024-02-14T09:25:46;9.40;99.90
26408;DHT22;14583;43.604;1.364;2024-02-14T09:28:13;9.30;99.90
26408;DHT22;14583;43.604;1.364;2024-02-14T09:30:39;9.40;99.90
26408;DHT22;14583;43.604;1.364;2024-02-14T09:33:05;9.50;99.90
26408;DHT22;14583;43.604;1.364;2024-02-14T09:35:31;9.50;99.90
26408;DHT22;14583;43.604;1.364;2024-02-14T09:37:57;9.60;99.90
26408;DHT22;14583;43.604;1.364;2024-02-14T09:40:22;9.50;99.90
26408;DHT22;14583;43.604;1.364;2024-02-14T09:42:56;9.60;99.90
26408;DHT22;14583;43.604;1.364;2024-02-14T09:45:27;9.70;99.90
26408;DHT22;14583;43.604;1.364;2024-02-14T09:47:57;9.80;99.90
26408;DHT22;14583;43.604;1.364;2024-02-14T09:50:23;9.80;99.90
26408;DHT22;14583;43.604;1.364;2024-02-14T09:52:50;9.90;99.90
26408;DHT22;14583;43.604;1.364;2024-02-14T09:55:17;9.90;99.90
26408;DHT22;14583;43.604;1.364;2024-02-14T09:57:43;10.10;99.90
26408;DHT22;14583;43.604;1.364;2024-02-14T10:00:10;10.20;99.90
26408;DHT22;14583;43.604;1.364;2024-02-14T10:02:36;10.20;99.90
26408;DHT22;14583;43.604;1.364;2024-02-14T10:05:02;10.30;99.90
26408;DHT22;14583;43.604;1.364;2024-02-14T10:07:28;10.30;99.90
26408;DHT22;14583;43.604;1.364;2024-02-14T10:09:53;10.40;99.90
26408;DHT22;14583;43.604;1.364;2024-02-14T10:12:19;10.40;99.90
26408;DHT22;14583;43.604;1.364;2024-02-14T10:14:45;10.40;99.90
26408;DHT22;14583;43.604;1.364;2024-02-14T10:17:18;10.40;99.90
26408;DHT22;14583;43.604;1.364;2024-02-14T10:19:54;10.50;99.90
26408;DHT22;14583;43.604;1.364;2024-02-14T10:22:20;10.70;99.90
26408;DHT22;14583;43.604;1.364;2024-02-14T10:24:46;10.70;99.90
26408;DHT22;14583;43.604;1.364;2024-02-14T10:27:12;10.80;99.90
26408;DHT22;14583;43.604;1.364;2024-02-14T10:29:40;10.90;99.90
26408;DHT22;14583;43.604;1.364;2024-02-14T10:32:06;10.90;99.90
26408;DHT22;14583;43.604;1.364;2024-02-14T10:34:33;11.00;99.90
26408;DHT22;14583;43.604;1.364;2024-02-14T10:37:00;11.10;99.90
26408;DHT22;14583;43.604;1.364;2024-02-14T10:39:26;11.20;99.90
26408;DHT22;14583;43.604;1.364;2024-02-14T10:41:54;11.40;99.90
26408;DHT22;14583;43.604;1.364;2024-02-14T10:44:20;11.50;99.90
26408;DHT22;14583;43.604;1.364;2024-02-14T10:46:49;11.60;99.90
26408;DHT22;14583;43.604;1.364;2024-02-14T10:49:20;11.70;99.90
26408;DHT22;14583;43.604;1.364;2024-02-14T10:51:47;11.70;99.90
26408;DHT22;14583;43.604;1.364;2024-02-14T10:54:14;11.70;99.90
26408;DHT22;14583;43.604;1.364;2024-02-14T10:56:48;11.70;99.90
26408;DHT22;14583;43.604;1.364;2024-02-14T10:59:17;11.80;99.90
26408;DHT22;14583;43.604;1.364;2024-02-14T11:01:45;11.90;99.90
26408;DHT22;14583;43.604;1.364;2024-02-14T11:04:11;12.00;99.90
26408;DHT22;14583;43.604;1.364;2024-02-14T11:06:47;12.20;99.90
26408;DHT22;14583;43.604;1.364;2024-02-14T11:09:13;12.40;99.90
26408;DHT22;14583;43.604;1.364;2024-02-14T11:11:42;12.50;99.90
26408;DHT22;14583;43.604;1.364;2024-02-14T11:14:15;12.40;99.90
26408;DHT22;14583;43.604;1.364;2024-02-14T11:16:45;12.40;99.90
26408;DHT22;14583;43.604;1.364;2024-02-14T11:19:12;12.50;99.90
26408;DHT22;14583;43.604;1.364;2024-02-14T11:21:42;12.70;99.90
26408;DHT22;14583;43.604;1.364;2024-02-14T11:24:10;12.80;99.90
26408;DHT22;14583;43.604;1.364;2024-02-14T11:26:40;12.70;99.90
26408;DHT22;14583;43.604;1.364;2024-02-14T11:29:05;12.70;99.90
26408;DHT22;14583;43.604;1.364;2024-02-14T11:31:33;12.90;99.90
26408;DHT22;14583;43.604;1.364;2024-02-14T11:34:07;12.70;99.90
26408;DHT22;14583;43.604;1.364;2024-02-14T11:36:34;12.90;99.90
26408;DHT22;14583;43.604;1.364;2024-02-14T11:39:04;13.00;99.90
26408;DHT22;14583;43.604;1.364;2024-02-14T11:41:36;12.90;99.90
26408;DHT22;14583;43.604;1.364;2024-02-14T11:44:04;13.00;99.90
26408;DHT22;14583;43.604;1.364;2024-02-14T11:46:34;13.20;99.90
26408;DHT22;14583;43.604;1.364;2024-02-14T11:49:02;13.30;99.90
26408;DHT22;14583;43.604;1.364;2024-02-14T11:51:33;13.40;99.90
26408;DHT22;14583;43.604;1.364;2024-02-14T11:54:01;13.50;99.90
26408;DHT22;14583;43.604;1.364;2024-02-14T11:56:39;13.40;99.90
26408;DHT22;14583;43.604;1.364;2024-02-14T11:59:07;13.50;99.90
26408;DHT22;14583;43.604;1.364;2024-02-14T12:01:37;13.60;99.90
26408;DHT22;14583;43.604;1.364;2024-02-14T12:04:05;13.90;99.90
26408;DHT22;14583;43.604;1.364;2024-02-14T12:06:35;13.80;99.90
26408;DHT22;14583;43.604;1.364;2024-02-14T12:09:05;13.90;99.90
26408;DHT22;14583;43.604;1.364;2024-02-14T12:11:31;14.00;99.90
26408;DHT22;14583;43.604;1.364;2024-02-14T12:14:03;14.20;99.90
26408;DHT22;14583;43.604;1.364;2024-02-14T12:16:29;14.50;99.90
26408;DHT22;14583;43.604;1.364;2024-02-14T12:19:15;14.60;99.90
26408;DHT22;14583;43.604;1.364;2024-02-14T12:21:41;14.40;99.90
26408;DHT22;14583;43.604;1.364;2024-02-14T12:24:13;14.40;99.90
26408;DHT22;14583;43.604;1.364;2024-02-14T12:26:40;14.50;99.90
26408;DHT22;14583;43.604;1.364;2024-02-14T12:29:07;14.60;99.90
26408;DHT22;14583;43.604;1.364;2024-02-14T12:31:34;14.60;99.90
26408;DHT22;14583;43.604;1.364;2024-02-14T12:34:02;14.90;99.90
26408;DHT22;14583;43.604;1.364;2024-02-14T12:36:31;15.10;99.90
26408;DHT22;14583;43.604;1.364;2024-02-14T12:39:02;15.20;99.90
26408;DHT22;14583;43.604;1.364;2024-02-14T12:41:28;15.10;99.90
26408;DHT22;14583;43.604;1.364;2024-02-14T12:43:59;15.10;99.90
26408;DHT22;14583;43.604;1.364;2024-02-14T12:46:25;15.10;99.90
26408;DHT22;14583;43.604;1.364;2024-02-14T12:48:52;15.10;99.90
26408;DHT22;14583;43.604;1.364;2024-02-14T12:51:17;15.50;99.90
26408;DHT22;14583;43.604;1.364;2024-02-14T12:53:43;15.80;99.90
26408;DHT22;14583;43.604;1.364;2024-02-14T12:56:09;16.10;99.90
26408;DHT22;14583;43.604;1.364;2024-02-14T12:58:35;16.00;99.90
26408;DHT22;14583;43.604;1.364;2024-02-14T13:01:02;15.70;99.90
26408;DHT22;14583;43.604;1.364;2024-02-14T13:03:32;15.60;99.90
26408;DHT22;14583;43.604;1.364;2024-02-14T13:05:59;15.60;99.90
26408;DHT22;14583;43.604;1.364;2024-02-14T13:08:24;15.70;99.90
26408;DHT22;14583;43.604;1.364;2024-02-14T13:10:50;15.70;99.90
26408;DHT22;14583;43.604;1.364;2024-02-14T13:13:16;15.70;99.90
26408;DHT22;14583;43.604;1.364;2024-02-14T13:15:41;15.90;99.90
26408;DHT22;14583;43.604;1.364;2024-02-14T13:18:09;16.10;99.90
26408;DHT22;14583;43.604;1.364;2024-02-14T13:20:35;16.40;99.90
26408;DHT22;14583;43.604;1.364;2024-02-14T13:23:01;16.40;99.90
26408;DHT22;14583;43.604;1.364;2024-02-14T13:25:27;16.30;99.90
26408;DHT22;14583;43.604;1.364;2024-02-14T13:27:53;16.30;99.90
26408;DHT22;14583;43.604;1.364;2024-02-14T13:30:20;16.40;99.90
26408;DHT22;14583;43.604;1.364;2024-02-14T13:32:47;16.50;99.90
26408;DHT22;14583;43.604;1.364;2024-02-14T13:35:12;16.70;99.90
26408;DHT22;14583;43.604;1.364;2024-02-14T13:37:39;16.70;99.90
26408;DHT22;14583;43.604;1.364;2024-02-14T13:40:05;16.60;99.90
26408;DHT22;14583;43.604;1.364;2024-02-14T13:42:36;16.50;99.90
26408;DHT22;14583;43.604;1.364;2024-02-14T13:45:06;16.70;99.90
26408;DHT22;14583;43.604;1.364;2024-02-14T13:47:36;16.70;99.90
26408;DHT22;14583;43.604;1.364;2024-02-14T13:50:08;16.80;99.90
26408;DHT22;14583;43.604;1.364;2024-02-14T13:52:35;16.90;99.90
26408;DHT22;14583;43.604;1.364;2024-02-14T13:55:02;17.00;99.90
26408;DHT22;14583;43.604;1.364;2024-02-14T13:57:31;17.10;99.90
26408;DHT22;14583;43.604;1.364;2024-02-14T13:59:57;17.20;99.90
26408;DHT22;14583;43.604;1.364;2024-02-14T14:02:23;17.30;99.90
26408;DHT22;14583;43.604;1.364;2024-02-14T14:04:49;17.40;99.90
26408;DHT22;14583;43.604;1.364;2024-02-14T14:07:14;17.40;99.90
26408;DHT22;14583;43.604;1.364;2024-02-14T14:09:40;17.40;99.90
26408;DHT22;14583;43.604;1.364;2024-02-14T14:12:06;17.60;99.90
26408;DHT22;14583;43.604;1.364;2024-02-14T14:14:31;17.60;99.90
26408;DHT22;14583;43.604;1.364;2024-02-14T14:16:57;17.80;99.90
26408;DHT22;14583;43.604;1.364;2024-02-14T14:19:23;18.00;99.90
26408;DHT22;14583;43.604;1.364;2024-02-14T14:21:49;18.10;99.90
26408;DHT22;14583;43.604;1.364;2024-02-14T14:24:15;18.20;99.90
26408;DHT22;14583;43.604;1.364;2024-02-14T14:26:41;18.30;99.90
26408;DHT22;14583;43.604;1.364;2024-02-14T14:29:06;18.40;99.90
26408;DHT22;14583;43.604;1.364;2024-02-14T14:31:34;18.50;99.90
26408;DHT22;14583;43.604;1.364;2024-02-14T14:34:01;18.60;99.90
26408;DHT22;14583;43.604;1.364;2024-02-14T14:36:26;18.80;99.90
26408;DHT22;14583;43.604;1.364;2024-02-14T14:38:52;18.90;99.90
26408;DHT22;14583;43.604;1.364;2024-02-14T14:41:20;19.00;99.90
26408;DHT22;14583;43.604;1.364;2024-02-14T14:43:45;19.20;99.90
26408;DHT22;14583;43.604;1.364;2024-02-14T14:46:15;19.30;99.90
26408;DHT22;14583;43.604;1.364;2024-02-14T14:48:41;19.40;99.90
26408;DHT22;14583;43.604;1.364;2024-02-14T14:51:06;19.60;99.90
26408;DHT22;14583;43.604;1.364;2024-02-14T14:53:33;19.70;99.90
26408;DHT22;14583;43.604;1.364;2024-02-14T14:56:00;19.50;99.90
26408;DHT22;14583;43.604;1.364;2024-02-14T14:58:27;19.60;99.90
26408;DHT22;14583;43.604;1.364;2024-02-14T15:00:56;19.70;99.90
26408;DHT22;14583;43.604;1.364;2024-02-14T15:03:22;19.70;99.90
26408;DHT22;14583;43.604;1.364;2024-02-14T15:05:48;19.60;99.90
26408;DHT22;14583;43.604;1.364;2024-02-14T15:08:14;19.60;99.90
26408;DHT22;14583;43.604;1.364;2024-02-14T15:10:40;19.80;99.90
26408;DHT22;14583;43.604;1.364;2024-02-14T15:13:08;20.50;99.90
26408;DHT22;14583;43.604;1.364;2024-02-14T15:15:35;20.50;99.90
26408;DHT22;14583;43.604;1.364;2024-02-14T15:18:01;20.80;99.90
26408;DHT22;14583;43.604;1.364;2024-02-14T15:20:27;22.40;99.90
26408;DHT22;14583;43.604;1.364;2024-02-14T15:22:53;25.30;99.90
26408;DHT22;14583;43.604;1.364;2024-02-14T15:25:18;26.70;99.90
26408;DHT22;14583;43.604;1.364;2024-02-14T15:27:45;27.20;99.90
26408;DHT22;14583;43.604;1.364;2024-02-14T15:30:24;27.20;99.90
26408;DHT22;14583;43.604;1.364;2024-02-14T15:33:08;27.40;99.90
26408;DHT22;14583;43.604;1.364;2024-02-14T15:35:49;26.10;98.60
26408;DHT22;14583;43.604;1.364;2024-02-14T15:38:15;26.50;99.10